Time;durP1;ratioP1;P1;durP2;ratioP2;P2;SDS_P1;SDS_P2;PMS_P1;PMS_P2;Temp;Humidity;BMP_temperature;BMP_pressure;BME280_temperature;BME280_humidity;BME280_pressure;Samples;Min_cycle;Max_cycle;Signal;HPM_P1;HPM_P2
2020/12/19 00:03:45;;;;;;;4.90;3.30;;;20.60;32.50;;;;;;8265577;28;20516;-46
2020/12/19 00:07:46;;;;;;;5.70;3.23;;;20.60;32.50;;;;;;8260512;28;20042;-46
2020/12/19 00:11:47;;;;;;;5.10;3.53;;;20.60;32.50;;;;;;8282399;28;20045;-47
2020/12/19 00:15:47;;;;;;;5.37;3.60;;;20.60;32.50;;;;;;8290912;28;20034;-48
2020/12/19 00:19:48;;;;;;;4.13;3.40;;;20.60;32.50;;;;;;8292205;28;20049;-48
2020/12/19 00:23:48;;;;;;;3.93;3.10;;;20.60;32.50;;;;;;8292983;28;20026;-47
2020/12/19 00:27:49;;;;;;;3.97;2.90;;;20.60;32.50;;;;;;8293066;28;20041;-47
2020/12/19 00:31:49;;;;;;;3.33;3.03;;;20.50;32.50;;;;;;8259758;28;20043;-49
2020/12/19 00:35:50;;;;;;;3.70;3.10;;;20.50;32.50;;;;;;8259783;28;20072;-47
2020/12/19 00:39:51;;;;;;;5.63;3.60;;;20.50;32.50;;;;;;8257897;28;20046;-47
2020/12/19 00:43:53;;;;;;;4.70;3.35;;;20.50;32.50;;;;;;8259473;28;20050;-47
2020/12/19 00:47:53;;;;;;;3.15;2.65;;;20.50;32.50;;;;;;8282444;28;20029;-46
2020/12/19 00:51:54;;;;;;;3.80;3.00;;;20.50;32.50;;;;;;8290128;28;20037;-47
2020/12/19 00:55:54;;;;;;;3.37;2.77;;;20.50;32.50;;;;;;8281588;28;20520;-46
2020/12/19 00:59:55;;;;;;;5.17;3.87;;;20.50;32.50;;;;;;8259027;28;20089;-46
2020/12/19 01:03:57;;;;;;;5.03;3.53;;;20.40;32.40;;;;;;8261707;28;20065;-46
2020/12/19 01:07:57;;;;;;;4.38;3.08;;;20.40;32.40;;;;;;8259453;28;20038;-46
2020/12/19 01:11:58;;;;;;;3.80;3.40;;;20.40;32.40;;;;;;8281690;28;20053;-46
2020/12/19 01:15:58;;;;;;;4.33;2.97;;;20.40;32.40;;;;;;8268432;28;20133;-45
2020/12/19 01:19:59;;;;;;;3.90;2.90;;;20.40;32.50;;;;;;8269207;28;20093;-46
2020/12/19 01:24:00;;;;;;;3.55;3.20;;;20.40;32.40;;;;;;8284344;28;20160;-46
2020/12/19 01:28:01;;;;;;;3.67;3.00;;;20.40;32.40;;;;;;8267645;28;20045;-46
2020/12/19 01:32:02;;;;;;;4.43;2.90;;;20.40;32.40;;;;;;8276297;28;20030;-47
2020/12/19 01:36:03;;;;;;;3.70;3.30;;;20.40;32.40;;;;;;8277134;28;20070;-48
2020/12/19 01:40:05;;;;;;;;;;;20.40;32.50;;;;;;8271457;28;20046;-46
2020/12/19 01:44:05;;;;;;;3.65;3.00;;;20.40;32.40;;;;;;8284739;28;19968;-46
2020/12/19 01:48:22;;;;;;;3.90;2.90;;;20.40;32.50;;;;;;8264720;28;20480;-46
2020/12/19 01:52:25;;;;;;;4.30;3.65;;;20.30;32.40;;;;;;8287066;28;20399;-47
2020/12/19 01:56:44;;;;;;;3.78;3.03;;;20.30;32.40;;;;;;8283155;28;20041;-51
2020/12/19 02:00:45;;;;;;;3.50;2.85;;;20.40;32.40;;;;;;8265483;28;20058;-47
2020/12/19 02:04:45;;;;;;;3.80;3.00;;;20.30;32.40;;;;;;8256954;28;20484;-46
2020/12/19 02:08:49;;;;;;;3.90;3.17;;;20.30;32.40;;;;;;8263767;28;20278;-46
2020/12/19 02:12:49;;;;;;;4.00;2.90;;;20.30;32.50;;;;;;8263779;28;20034;-47
2020/12/19 02:17:01;;;;;;;4.27;3.03;;;20.30;32.40;;;;;;8299931;28;20037;-46
2020/12/19 02:21:02;;;;;;;3.13;2.60;;;20.30;32.40;;;;;;8295510;28;20042;-46
2020/12/19 02:25:03;;;;;;;4.27;2.83;;;20.30;32.50;;;;;;8293153;28;20086;-47
2020/12/19 02:29:04;;;;;;;4.53;3.22;;;20.30;32.50;;;;;;8296025;28;20045;-47
2020/12/19 02:33:04;;;;;;;3.92;3.10;;;20.30;32.50;;;;;;8294969;28;20030;-47
2020/12/19 02:37:05;;;;;;;3.33;3.03;;;20.20;32.40;;;;;;8298346;28;20104;-46
2020/12/19 02:41:05;;;;;;;3.67;2.80;;;20.30;32.50;;;;;;8295347;28;20077;-46
2020/12/19 02:45:06;;;;;;;3.30;2.70;;;20.20;32.40;;;;;;8295177;28;20085;-49
2020/12/19 02:49:07;;;;;;;4.23;3.50;;;20.20;32.50;;;;;;8293614;28;20411;-46
2020/12/19 02:53:07;;;;;;;3.97;3.10;;;20.20;32.50;;;;;;8299200;28;20403;-47
2020/12/19 02:57:08;;;;;;;3.77;2.87;;;20.20;32.50;;;;;;8294357;28;20036;-47
2020/12/19 03:01:08;;;;;;;3.47;3.00;;;20.20;32.50;;;;;;8268776;28;20078;-48
2020/12/19 03:05:09;;;;;;;4.73;3.57;;;20.20;32.50;;;;;;8282011;28;20080;-48
2020/12/19 03:09:09;;;;;;;3.80;3.00;;;20.10;32.40;;;;;;8266417;28;20085;-46
2020/12/19 03:13:10;;;;;;;3.67;3.17;;;20.20;32.50;;;;;;8289690;28;20494;-48
2020/12/19 03:17:11;;;;;;;3.60;3.07;;;20.10;32.50;;;;;;8280970;28;20031;-48
2020/12/19 03:21:11;;;;;;;3.60;2.80;;;20.20;32.50;;;;;;8282623;28;20481;-47
2020/12/19 03:25:12;;;;;;;3.57;2.67;;;20.10;32.50;;;;;;8292335;28;20054;-47
2020/12/19 03:29:12;;;;;;;3.50;3.20;;;20.10;32.50;;;;;;8298256;28;20101;-47
2020/12/19 03:33:13;;;;;;;4.17;3.13;;;20.10;32.50;;;;;;8272440;28;20030;-47
2020/12/19 03:37:13;;;;;;;3.53;2.73;;;20.10;32.50;;;;;;8259487;28;20038;-47
2020/12/19 03:41:14;;;;;;;3.47;2.67;;;20.10;32.50;;;;;;8261097;28;20038;-47
2020/12/19 03:45:14;;;;;;;4.10;2.90;;;20.10;32.50;;;;;;8265374;28;20488;-47
2020/12/19 03:49:15;;;;;;;3.13;2.77;;;20.10;32.50;;;;;;8283580;28;20062;-47
2020/12/19 03:53:15;;;;;;;3.00;2.67;;;20.10;32.50;;;;;;8274470;28;20038;-47
2020/12/19 03:57:16;;;;;;;2.50;2.30;;;20.10;32.50;;;;;;8292822;28;20026;-47
2020/12/19 04:01:16;;;;;;;3.53;2.77;;;20.10;32.50;;;;;;8293832;28;20200;-47
2020/12/19 04:05:17;;;;;;;3.27;2.97;;;20.10;32.50;;;;;;8295280;28;20487;-47
2020/12/19 04:09:18;;;;;;;3.20;2.37;;;20.10;32.50;;;;;;8292646;28;20033;-47
2020/12/19 04:13:18;;;;;;;3.13;2.80;;;20.00;32.50;;;;;;8260743;28;20384;-47
2020/12/19 04:17:19;;;;;;;3.30;2.40;;;20.00;32.50;;;;;;8259835;28;20030;-48
2020/12/19 04:21:19;;;;;;;2.90;2.60;;;20.00;32.50;;;;;;8286665;28;20085;-47
2020/12/19 04:25:20;;;;;;;2.93;2.53;;;20.10;32.60;;;;;;8260314;28;20507;-46
2020/12/19 04:29:20;;;;;;;3.23;2.63;;;20.10;32.50;;;;;;8273758;28;20124;-47
2020/12/19 04:33:24;;;;;;;2.77;2.20;;;20.10;32.40;;;;;;8270355;28;20031;-47
2020/12/19 04:37:24;;;;;;;2.85;2.55;;;20.20;32.30;;;;;;8268962;28;20518;-47
2020/12/19 04:41:25;;;;;;;3.58;2.40;;;20.20;32.30;;;;;;8292084;28;20081;-46
2020/12/19 04:45:26;;;;;;;3.50;2.33;;;20.30;32.40;;;;;;8293133;28;20105;-47
2020/12/19 04:49:28;;;;;;;3.30;2.67;;;20.30;32.30;;;;;;8296822;28;20308;-47
2020/12/19 04:53:28;;;;;;;;;;;20.30;32.20;;;;;;8283781;28;20125;-46
2020/12/19 04:57:28;;;;;;;2.73;2.20;;;20.40;32.20;;;;;;8270212;28;19925;-47
2020/12/19 05:01:29;;;;;;;2.80;2.30;;;20.40;32.10;;;;;;8264444;28;20448;-46
2020/12/19 05:05:30;;;;;;;2.38;2.08;;;20.50;32.10;;;;;;8265823;28;20438;-46
2020/12/19 05:09:30;;;;;;;2.80;2.27;;;20.50;32.00;;;;;;8265184;28;20042;-47
2020/12/19 05:13:31;;;;;;;2.67;2.20;;;20.50;32.00;;;;;;8268193;28;20042;-47
2020/12/19 05:17:31;;;;;;;2.77;2.13;;;20.60;31.90;;;;;;8265591;28;20080;-47
2020/12/19 05:21:43;;;;;;;2.43;2.07;;;20.60;31.90;;;;;;8288964;28;20380;-46
2020/12/19 05:25:44;;;;;;;;;;;20.70;31.90;;;;;;8287174;28;20511;-47
2020/12/19 05:29:44;;;;;;;3.60;2.53;;;20.70;31.80;;;;;;8265795;28;20481;-45
2020/12/19 05:33:45;;;;;;;3.83;2.33;;;20.70;31.80;;;;;;8292194;28;20350;-47
2020/12/19 05:38:03;;;;;;;3.37;2.17;;;20.70;31.80;;;;;;8296865;28;20487;-47
2020/12/19 05:42:04;;;;;;;2.70;2.00;;;20.70;31.80;;;;;;8296867;28;20284;-48
2020/12/19 05:46:04;;;;;;;2.77;2.50;;;20.70;32.00;;;;;;8271031;28;20037;-48
2020/12/19 05:50:05;;;;;;;2.67;2.33;;;20.80;31.70;;;;;;8301496;28;20038;-48
2020/12/19 05:54:10;;;;;;;2.77;2.47;;;20.80;31.70;;;;;;8296488;28;20529;-47
2020/12/19 05:58:11;;;;;;;3.17;1.98;;;20.90;31.70;;;;;;8294409;28;20077;-47
2020/12/19 06:02:15;;;;;;;2.97;2.47;;;20.90;31.60;;;;;;8296925;28;20034;-47
2020/12/19 06:06:17;;;;;;;2.67;2.10;;;20.90;31.60;;;;;;8274813;28;20281;-48
2020/12/19 06:10:18;;;;;;;2.42;2.10;;;20.90;31.60;;;;;;8266757;28;20038;-49
2020/12/19 06:14:21;;;;;;;2.30;2.10;;;21.00;31.60;;;;;;8277598;28;20127;-47
2020/12/19 06:18:44;;;;;;;2.85;2.35;;;21.00;31.60;;;;;;8296088;28;20042;-48
2020/12/19 06:22:45;;;;;;;2.85;2.50;;;21.00;31.50;;;;;;8294239;28;20084;-47
2020/12/19 06:26:46;;;;;;;2.80;2.40;;;21.00;31.50;;;;;;8282401;28;20039;-48
2020/12/19 06:30:46;;;;;;;2.87;2.30;;;21.00;31.50;;;;;;8292429;28;20074;-48
2020/12/19 06:35:09;;;;;;;2.10;1.80;;;21.00;31.50;;;;;;8273592;28;20042;-47
2020/12/19 06:39:10;;;;;;;2.42;2.10;;;21.00;31.50;;;;;;8263506;28;20055;-47
2020/12/19 06:43:14;;;;;;;3.00;2.08;;;21.00;31.50;;;;;;8256576;28;20065;-48
2020/12/19 06:47:19;;;;;;;2.10;1.90;;;21.00;31.50;;;;;;8235018;28;20035;-47
2020/12/19 06:51:20;;;;;;;2.42;2.10;;;21.00;31.50;;;;;;8259633;28;20050;-49
2020/12/19 06:55:22;;;;;;;3.00;2.20;;;21.00;31.60;;;;;;8260749;28;20066;-47
2020/12/19 06:59:27;;;;;;;2.33;1.80;;;20.90;31.60;;;;;;8262523;28;20120;-48
2020/12/19 07:03:38;;;;;;;2.20;2.00;;;20.90;31.60;;;;;;8285116;28;20410;-47
2020/12/19 07:07:39;;;;;;;2.20;1.83;;;21.00;31.60;;;;;;8298000;28;20062;-47
2020/12/19 07:11:40;;;;;;;1.63;1.47;;;20.90;31.60;;;;;;8277648;28;20038;-47
2020/12/19 07:15:45;;;;;;;2.20;2.00;;;20.90;31.60;;;;;;8260276;28;20034;-48
2020/12/19 07:19:55;;;;;;;2.55;1.90;;;20.90;31.60;;;;;;8261614;28;20034;-47
2020/12/19 07:23:56;;;;;;;2.20;1.80;;;20.90;31.60;;;;;;8265787;28;20034;-50
2020/12/19 07:27:56;;;;;;;2.53;1.80;;;20.90;31.70;;;;;;8259930;28;20074;-50
2020/12/19 07:32:01;;;;;;;1.97;1.60;;;20.90;31.70;;;;;;8261473;28;20038;-48
2020/12/19 07:36:02;;;;;;;1.80;1.60;;;20.90;31.70;;;;;;8280516;28;20034;-48
2020/12/19 07:40:05;;;;;;;2.33;2.08;;;20.90;31.70;;;;;;8291516;28;20771;-48
2020/12/19 07:44:16;;;;;;;1.92;1.60;;;20.90;31.70;;;;;;8297861;28;20058;-47
2020/12/19 07:48:17;;;;;;;2.75;2.03;;;20.90;31.70;;;;;;8293509;28;20037;-47
2020/12/19 07:52:25;;;;;;;2.00;1.70;;;20.90;31.60;;;;;;8291748;28;20065;-47
2020/12/19 07:56:26;;;;;;;2.33;2.13;;;20.90;31.70;;;;;;8293312;28;20112;-48
2020/12/19 08:00:27;;;;;;;2.55;2.30;;;20.90;31.60;;;;;;8297465;28;20057;-48
2020/12/19 08:04:28;;;;;;;2.00;1.48;;;20.90;31.60;;;;;;8266904;28;20045;-47
2020/12/19 08:08:29;;;;;;;1.98;1.70;;;20.90;31.60;;;;;;8292833;28;20084;-50
2020/12/19 08:12:30;;;;;;;2.10;1.90;;;20.90;31.60;;;;;;8292770;28;20401;-47
2020/12/19 08:16:31;;;;;;;2.03;1.70;;;20.90;31.60;;;;;;8266676;28;20029;-48
2020/12/19 08:20:37;;;;;;;1.60;1.50;;;20.90;31.60;;;;;;8296238;28;20062;-48
2020/12/19 08:24:38;;;;;;;2.28;1.73;;;20.90;31.60;;;;;;8290542;28;20073;-46
2020/12/19 08:28:39;;;;;;;1.65;1.55;;;20.90;31.60;;;;;;8292744;28;20092;-48
2020/12/19 08:32:42;;;;;;;1.77;1.67;;;21.00;31.60;;;;;;8292422;28;20077;-47
2020/12/19 08:36:46;;;;;;;2.00;1.70;;;20.90;31.50;;;;;;8295032;28;20034;-48
2020/12/19 08:40:49;;;;;;;2.03;1.73;;;20.90;31.50;;;;;;8292537;28;20527;-47
2020/12/19 08:44:50;;;;;;;1.60;1.50;;;20.90;31.40;;;;;;8274373;28;20125;-48
2020/12/19 08:48:59;;;;;;;1.67;1.57;;;21.00;31.60;;;;;;8258454;28;20038;-48
2020/12/19 08:53:01;;;;;;;1.92;1.50;;;20.90;31.50;;;;;;8259936;28;20413;-47
2020/12/19 08:57:02;;;;;;;1.83;1.42;;;21.00;31.50;;;;;;8264060;28;20081;-49
2020/12/19 09:01:15;;;;;;;1.93;1.70;;;20.90;31.50;;;;;;8258018;28;20053;-48
2020/12/19 09:05:16;;;;;;;2.35;1.70;;;21.00;31.50;;;;;;8259372;28;20035;-47
2020/12/19 09:09:18;;;;;;;1.90;1.60;;;21.00;31.40;;;;;;8259259;28;20066;-48
2020/12/19 09:13:22;;;;;;;2.10;1.80;;;21.00;31.40;;;;;;8267666;28;20042;-51
2020/12/19 09:17:29;;;;;;;1.95;1.73;;;21.00;31.50;;;;;;8294365;28;20034;-50
2020/12/19 09:21:30;;;;;;;1.80;1.52;;;21.00;31.50;;;;;;8268061;28;20046;-48
2020/12/19 09:25:31;;;;;;;2.63;1.77;;;21.00;31.40;;;;;;8257776;28;20093;-47
2020/12/19 09:29:32;;;;;;;1.65;1.55;;;21.00;31.40;;;;;;8259081;28;20037;-47
2020/12/19 09:33:32;;;;;;;2.00;1.87;;;21.00;31.40;;;;;;8291411;28;20026;-48
2020/12/19 09:37:33;;;;;;;1.80;1.50;;;21.00;31.40;;;;;;8295676;28;20129;-48
2020/12/19 09:41:33;;;;;;;1.63;1.53;;;21.00;31.40;;;;;;8280977;28;20082;-47
2020/12/19 09:45:35;;;;;;;2.03;1.83;;;21.00;31.40;;;;;;8288075;28;20081;-48
2020/12/19 09:49:35;;;;;;;1.63;1.45;;;21.00;31.40;;;;;;8299843;28;20038;-47
2020/12/19 09:53:37;;;;;;;1.50;1.40;;;21.00;31.40;;;;;;8296783;28;20072;-49
2020/12/19 09:57:37;;;;;;;1.65;1.48;;;21.10;31.40;;;;;;8295056;28;20034;-48
2020/12/19 10:01:39;;;;;;;2.10;1.87;;;21.10;31.40;;;;;;8264118;28;20065;-48
2020/12/19 10:05:39;;;;;;;;;;;21.10;31.30;;;;;;8264847;28;20037;-49
2020/12/19 10:09:40;;;;;;;2.07;1.87;;;21.10;31.30;;;;;;8266578;28;20298;-47
2020/12/19 10:13:40;;;;;;;1.90;1.67;;;21.10;31.30;;;;;;8288503;28;20030;-47
2020/12/19 10:17:41;;;;;;;1.60;1.50;;;21.10;31.30;;;;;;8280289;28;20038;-51
2020/12/19 10:21:41;;;;;;;2.30;1.57;;;21.10;31.30;;;;;;8286356;28;20042;-47
2020/12/19 10:25:42;;;;;;;1.97;1.80;;;21.10;31.20;;;;;;8268123;28;20392;-47
2020/12/19 10:29:42;;;;;;;1.73;1.57;;;21.10;31.30;;;;;;8263046;28;20047;-48
2020/12/19 10:33:43;;;;;;;1.67;1.53;;;21.10;31.30;;;;;;8261902;28;20531;-48
2020/12/19 10:37:43;;;;;;;1.77;1.60;;;21.10;31.20;;;;;;8263406;28;20049;-48
2020/12/19 10:41:48;;;;;;;1.90;1.70;;;21.10;31.20;;;;;;8283152;28;20530;-48
2020/12/19 10:45:48;;;;;;;2.00;1.70;;;21.10;31.20;;;;;;8271780;28;20042;-48
2020/12/19 10:49:51;;;;;;;2.33;1.90;;;21.20;31.20;;;;;;8294937;28;20507;-47
2020/12/19 10:53:52;;;;;;;4.00;1.67;;;21.10;31.30;;;;;;8294920;28;20041;-49
2020/12/19 10:57:52;;;;;;;1.97;1.53;;;21.20;31.20;;;;;;8293118;28;20030;-48
2020/12/19 11:01:53;;;;;;;1.70;1.60;;;21.20;31.20;;;;;;8289115;28;20066;-51
2020/12/19 11:05:53;;;;;;;1.80;1.70;;;21.20;31.20;;;;;;8280514;28;20034;-48
2020/12/19 11:09:54;;;;;;;2.30;1.75;;;21.20;31.20;;;;;;8293182;28;20030;-47
2020/12/19 11:13:55;;;;;;;1.50;1.20;;;21.20;31.20;;;;;;8294479;28;20022;-48
2020/12/19 11:17:56;;;;;;;1.80;1.70;;;21.20;31.10;;;;;;8298453;28;20040;-48
2020/12/19 11:21:57;;;;;;;2.00;1.80;;;21.20;31.10;;;;;;8289441;28;20030;-47
2020/12/19 11:25:57;;;;;;;1.83;1.57;;;21.20;31.10;;;;;;8261411;28;20109;-48
2020/12/19 11:29:58;;;;;;;3.13;2.03;;;21.20;31.10;;;;;;8261674;28;20376;-47
2020/12/19 11:33:58;;;;;;;4.73;1.60;;;21.20;31.10;;;;;;8262950;28;20041;-47
2020/12/19 11:37:59;;;;;;;1.83;1.73;;;21.20;31.10;;;;;;8286928;28;20030;-48
2020/12/19 11:42:01;;;;;;;1.93;1.77;;;21.20;31.10;;;;;;8280571;28;20037;-47
2020/12/19 11:46:01;;;;;;;1.95;1.77;;;21.20;31.10;;;;;;8291734;28;20041;-48
2020/12/19 11:50:04;;;;;;;1.90;1.60;;;21.20;31.10;;;;;;8293464;28;20030;-49
2020/12/19 11:54:04;;;;;;;2.08;1.85;;;21.20;31.10;;;;;;8297356;28;20037;-48
2020/12/19 11:58:05;;;;;;;2.20;1.93;;;21.20;31.10;;;;;;8291239;28;20036;-48
2020/12/19 12:02:05;;;;;;;2.13;1.93;;;21.20;31.10;;;;;;8293226;28;20100;-47
2020/12/19 12:06:06;;;;;;;2.13;1.90;;;21.20;31.00;;;;;;8293022;28;20049;-48
2020/12/19 12:10:06;;;;;;;1.77;1.67;;;21.20;31.10;;;;;;8267627;28;20047;-48
2020/12/19 12:14:07;;;;;;;2.23;1.73;;;21.20;31.00;;;;;;8260912;28;20589;-48
2020/12/19 12:18:07;;;;;;;2.47;1.93;;;21.20;31.00;;;;;;8260422;28;20395;-51
2020/12/19 12:22:08;;;;;;;2.83;1.90;;;21.20;31.00;;;;;;8287047;28;20085;-48
2020/12/19 12:26:08;;;;;;;2.53;2.00;;;21.30;31.00;;;;;;8292717;28;20411;-50
2020/12/19 12:30:09;;;;;;;2.47;2.20;;;21.30;31.00;;;;;;8296933;28;20038;-49
2020/12/19 12:34:09;;;;;;;2.50;2.20;;;21.30;31.00;;;;;;8290764;28;20049;-48
2020/12/19 12:38:10;;;;;;;1.93;1.70;;;21.30;30.90;;;;;;8292470;28;20038;-48
2020/12/19 12:42:10;;;;;;;2.97;2.23;;;21.30;31.00;;;;;;8292120;28;20172;-50
2020/12/19 12:46:15;;;;;;;2.73;2.30;;;21.30;30.90;;;;;;8290566;28;20138;-47
2020/12/19 12:50:15;;;;;;;2.50;2.30;;;21.30;30.90;;;;;;8259879;28;20034;-46
2020/12/19 12:54:16;;;;;;;2.63;2.00;;;21.30;30.80;;;;;;8260050;28;20085;-48
2020/12/19 12:58:17;;;;;;;2.60;2.30;;;21.30;30.80;;;;;;8282677;28;20369;-50
2020/12/19 13:02:17;;;;;;;3.37;2.50;;;21.30;30.80;;;;;;8259455;28;20049;-47
2020/12/19 13:06:18;;;;;;;2.93;2.40;;;21.30;30.90;;;;;;8264522;28;20278;-48
2020/12/19 13:10:18;;;;;;;2.70;2.20;;;21.30;30.90;;;;;;8288413;28;20038;-47
2020/12/19 13:14:19;;;;;;;2.90;2.27;;;21.30;30.90;;;;;;8278947;28;20072;-47
2020/12/19 13:18:19;;;;;;;2.97;2.43;;;21.20;30.80;;;;;;8269522;28;20121;-47
2020/12/19 13:22:20;;;;;;;3.60;2.65;;;21.20;31.10;;;;;;8271662;28;20482;-49
2020/12/19 13:26:20;;;;;;;3.07;2.27;;;21.30;31.30;;;;;;8291764;28;20037;-48
2020/12/19 13:30:21;;;;;;;5.50;2.50;;;21.30;31.30;;;;;;8291211;28;20118;-52
2020/12/19 13:34:22;;;;;;;2.75;2.20;;;21.40;31.50;;;;;;8289716;28;20038;-50
2020/12/19 13:38:22;;;;;;;3.70;2.50;;;21.40;31.50;;;;;;8295685;28;20053;-51
2020/12/19 13:42:23;;;;;;;3.20;2.30;;;21.40;31.50;;;;;;8290448;28;20037;-49
2020/12/19 13:46:23;;;;;;;5.73;2.70;;;21.50;31.50;;;;;;8289820;28;20041;-50
2020/12/19 13:50:24;;;;;;;2.77;2.43;;;21.50;31.50;;;;;;8291048;28;20046;-48
2020/12/19 13:54:24;;;;;;;6.20;2.97;;;21.60;31.40;;;;;;8290574;28;20041;-49
2020/12/19 13:58:25;;;;;;;5.47;2.37;;;21.60;31.30;;;;;;8262185;28;20515;-48
2020/12/19 14:02:25;;;;;;;4.00;2.40;;;21.70;31.20;;;;;;8272574;28;20046;-48
2020/12/19 14:06:30;;;;;;;4.90;2.80;;;21.70;32.30;;;;;;8290228;28;20472;-47
2020/12/19 14:10:31;;;;;;;5.65;2.75;;;21.80;31.90;;;;;;8288205;28;20038;-48
2020/12/19 14:14:32;;;;;;;3.50;2.67;;;21.90;32.20;;;;;;8279674;28;20530;-50
2020/12/19 14:18:32;;;;;;;5.65;2.80;;;21.90;32.30;;;;;;8256682;28;20081;-49
2020/12/19 14:22:36;;;;;;;5.50;2.77;;;22.00;32.40;;;;;;8255760;28;20506;-49
2020/12/19 14:26:36;;;;;;;5.30;3.08;;;22.00;32.50;;;;;;8257266;28;20042;-49
2020/12/19 14:30:36;;;;;;;4.97;2.67;;;22.00;32.30;;;;;;8283549;28;20490;-48
2020/12/19 14:34:37;;;;;;;3.73;2.77;;;22.00;32.30;;;;;;8282037;28;20045;-49
2020/12/19 14:38:37;;;;;;;4.53;2.73;;;22.00;32.40;;;;;;8256893;28;20488;-49
2020/12/19 14:42:42;;;;;;;5.07;2.87;;;22.00;32.40;;;;;;8279673;28;20105;-49
2020/12/19 14:46:43;;;;;;;3.25;2.60;;;22.10;32.80;;;;;;8289121;28;20407;-51
2020/12/19 14:50:43;;;;;;;3.00;2.70;;;22.10;32.60;;;;;;8290037;28;20121;-48
2020/12/19 14:54:44;;;;;;;3.23;2.80;;;22.10;32.60;;;;;;8287062;28;20439;-48
2020/12/19 14:58:45;;;;;;;3.97;2.77;;;22.10;32.50;;;;;;8278838;28;20132;-52
2020/12/19 15:02:45;;;;;;;6.22;3.75;;;22.10;32.60;;;;;;8268734;28;20750;-51
2020/12/19 15:06:48;;;;;;;3.97;2.60;;;22.10;32.70;;;;;;8274777;28;20100;-49
2020/12/19 15:10:49;;;;;;;3.75;2.58;;;22.10;32.60;;;;;;8251222;28;20049;-47
2020/12/19 15:14:49;;;;;;;3.33;2.53;;;22.10;32.70;;;;;;8272338;28;20515;-51
2020/12/19 15:18:51;;;;;;;4.87;3.37;;;22.10;32.60;;;;;;8279523;28;20050;-48
2020/12/19 15:22:51;;;;;;;4.15;2.70;;;22.20;32.70;;;;;;8290317;28;20080;-48
2020/12/19 15:26:52;;;;;;;11.23;3.20;;;22.20;32.60;;;;;;8285070;28;20085;-50
2020/12/19 15:30:53;;;;;;;4.53;3.00;;;22.20;32.70;;;;;;8280315;28;20033;-48
2020/12/19 15:34:53;;;;;;;6.00;2.70;;;22.20;32.70;;;;;;8250647;28;20864;-47
2020/12/19 15:38:54;;;;;;;4.53;2.87;;;22.20;32.60;;;;;;8250341;28;20042;-51
2020/12/19 15:42:54;;;;;;;3.60;2.97;;;22.20;32.70;;;;;;8280002;28;20053;-50
2020/12/19 15:46:55;;;;;;;6.47;3.30;;;22.20;32.70;;;;;;8252446;28;20035;-49
2020/12/19 15:50:55;;;;;;;5.87;3.17;;;22.20;32.70;;;;;;8248941;28;20037;-46
2020/12/19 15:54:56;;;;;;;4.80;2.67;;;22.20;32.80;;;;;;8251103;28;20049;-49
2020/12/19 15:58:57;;;;;;;4.97;2.85;;;22.30;32.80;;;;;;8285672;28;20052;-51
2020/12/19 16:02:57;;;;;;;6.83;3.40;;;22.30;32.60;;;;;;8281533;28;20553;-51
2020/12/19 16:06:58;;;;;;;6.40;3.10;;;22.30;31.90;;;;;;8276102;28;20135;-53
2020/12/19 16:10:58;;;;;;;4.63;3.07;;;22.30;32.50;;;;;;8279480;28;20545;-51
2020/12/19 16:14:59;;;;;;;4.17;2.77;;;22.30;32.40;;;;;;8280806;28;20041;-49
2020/12/19 16:18:59;;;;;;;3.97;3.00;;;22.30;32.10;;;;;;8257324;28;20570;-51
2020/12/19 16:23:00;;;;;;;3.77;2.73;;;22.40;32.10;;;;;;8260782;28;20033;-49
2020/12/19 16:27:01;;;;;;;3.93;3.27;;;22.40;32.00;;;;;;8281928;28;20033;-46
2020/12/19 16:31:01;;;;;;;3.27;2.60;;;22.40;32.10;;;;;;8280407;28;20053;-46
2020/12/19 16:35:02;;;;;;;7.63;3.05;;;22.40;32.10;;;;;;8287354;28;20484;-47
2020/12/19 16:39:04;;;;;;;5.23;2.60;;;22.40;32.10;;;;;;8282279;28;20056;-48
2020/12/19 16:43:04;;;;;;;4.00;2.80;;;22.40;32.10;;;;;;8255506;28;20042;-47
2020/12/19 16:47:05;;;;;;;5.03;3.30;;;22.40;32.10;;;;;;8266104;28;20038;-48
2020/12/19 16:51:06;;;;;;;4.33;3.03;;;22.40;32.10;;;;;;8267623;28;20089;-48
2020/12/19 16:55:06;;;;;;;4.13;3.17;;;22.40;32.00;;;;;;8284836;28;20046;-49
2020/12/19 16:59:07;;;;;;;3.50;2.60;;;22.40;32.00;;;;;;8287892;28;20419;-49
2020/12/19 17:03:07;;;;;;;3.33;2.77;;;22.40;32.00;;;;;;8285295;28;20045;-47
2020/12/19 17:07:08;;;;;;;4.90;3.23;;;22.40;32.00;;;;;;8286083;28;20049;-47
2020/12/19 17:11:08;;;;;;;4.43;3.53;;;22.40;32.00;;;;;;8292064;28;20410;-48
2020/12/19 17:15:09;;;;;;;4.43;3.27;;;22.40;31.90;;;;;;8286480;28;20124;-48
2020/12/19 17:19:09;;;;;;;3.83;3.00;;;22.40;31.90;;;;;;8283031;28;20058;-49
2020/12/19 17:23:10;;;;;;;4.33;2.80;;;22.40;31.90;;;;;;8284448;28;20049;-48
2020/12/19 17:27:10;;;;;;;3.80;2.90;;;22.40;31.80;;;;;;8291340;28;20064;-50
2020/12/19 17:31:11;;;;;;;2.60;2.40;;;22.40;31.70;;;;;;8288993;28;20069;-52
2020/12/19 17:35:12;;;;;;;3.75;2.83;;;22.40;31.80;;;;;;8290489;28;20102;-54
2020/12/19 17:39:12;;;;;;;4.33;3.00;;;22.40;31.80;;;;;;8290263;28;20097;-52
2020/12/19 17:43:13;;;;;;;5.23;3.20;;;22.40;31.70;;;;;;8260569;28;20050;-49
2020/12/19 17:47:14;;;;;;;5.20;3.03;;;22.50;31.70;;;;;;8261554;28;20495;-47
2020/12/19 17:51:15;;;;;;;6.63;3.17;;;22.50;31.70;;;;;;8258097;28;20081;-49
2020/12/19 17:55:15;;;;;;;2.95;2.60;;;22.50;31.80;;;;;;8270789;28;20049;-49
2020/12/19 17:59:16;;;;;;;5.17;3.27;;;22.50;31.70;;;;;;8258490;28;20129;-48
2020/12/19 18:03:16;;;;;;;6.87;3.43;;;22.50;31.70;;;;;;8268490;28;20427;-49
2020/12/19 18:07:20;;;;;;;6.10;3.07;;;22.50;31.70;;;;;;8286691;28;20053;-47
2020/12/19 18:11:20;;;;;;;3.83;2.63;;;22.50;31.60;;;;;;8277459;28;20030;-47
2020/12/19 18:15:21;;;;;;;4.77;3.27;;;22.50;31.60;;;;;;8274160;28;20066;-47
2020/12/19 18:19:21;;;;;;;4.77;3.07;;;22.40;31.50;;;;;;8290643;28;20039;-47
2020/12/19 18:23:23;;;;;;;4.60;3.40;;;22.40;31.40;;;;;;8263694;28;20034;-47
2020/12/19 18:27:24;;;;;;;3.45;2.63;;;22.40;31.40;;;;;;8263354;28;20049;-47
2020/12/19 18:31:24;;;;;;;4.37;3.17;;;22.40;31.40;;;;;;8292406;28;20045;-48
2020/12/19 18:35:25;;;;;;;4.03;3.60;;;22.40;31.30;;;;;;8295390;28;20454;-48
2020/12/19 18:39:25;;;;;;;4.38;3.35;;;22.30;31.30;;;;;;8299657;28;20045;-47
2020/12/19 18:43:26;;;;;;;3.87;3.07;;;22.30;31.30;;;;;;8262909;28;20089;-47
2020/12/19 18:47:27;;;;;;;4.47;2.77;;;22.30;31.30;;;;;;8277506;28;20045;-49
2020/12/19 18:51:27;;;;;;;5.63;3.60;;;22.30;31.20;;;;;;8272216;28;20026;-47
2020/12/19 18:55:28;;;;;;;6.03;3.50;;;22.30;31.20;;;;;;8296113;28;20041;-47
2020/12/19 18:59:28;;;;;;;3.33;3.03;;;22.30;31.30;;;;;;8294521;28;20053;-48
2020/12/19 19:03:30;;;;;;;4.35;3.42;;;22.30;31.20;;;;;;8271006;28;20089;-49
2020/12/19 19:07:30;;;;;;;3.65;2.78;;;22.30;31.30;;;;;;8291892;28;20231;-47
2020/12/19 19:11:31;;;;;;;3.83;3.07;;;22.20;31.20;;;;;;8295884;28;20479;-48
2020/12/19 19:15:31;;;;;;;3.17;2.73;;;22.20;31.10;;;;;;8297531;28;20042;-50
2020/12/19 19:19:33;;;;;;;3.97;3.13;;;22.20;31.10;;;;;;8285059;28;20105;-51
2020/12/19 19:23:33;;;;;;;5.07;3.03;;;22.20;31.10;;;;;;8261838;28;20039;-50
2020/12/19 19:27:34;;;;;;;3.77;2.87;;;22.20;31.10;;;;;;8261695;28;20037;-50
2020/12/19 19:31:45;;;;;;;4.00;3.20;;;22.20;31.10;;;;;;8263938;28;20034;-49
2020/12/19 19:35:45;;;;;;;4.20;3.50;;;22.20;31.10;;;;;;8260681;28;20046;-49
2020/12/19 19:39:46;;;;;;;5.03;3.10;;;22.20;31.00;;;;;;8259374;28;20077;-47
2020/12/19 19:43:46;;;;;;;3.67;3.00;;;22.20;31.00;;;;;;8261117;28;20109;-46
2020/12/19 19:47:47;;;;;;;4.90;3.23;;;22.20;31.00;;;;;;8265271;28;20039;-47
2020/12/19 19:51:48;;;;;;;4.78;3.15;;;22.10;30.90;;;;;;8283513;28;20038;-49
2020/12/19 19:55:49;;;;;;;4.70;2.83;;;22.10;30.90;;;;;;8260517;28;20511;-46
2020/12/19 19:59:50;;;;;;;3.73;3.00;;;22.10;30.90;;;;;;8260718;28;20083;-47
2020/12/19 20:03:50;;;;;;;5.00;3.53;;;22.10;30.90;;;;;;8259281;28;20038;-46
2020/12/19 20:07:51;;;;;;;3.20;2.90;;;22.10;30.90;;;;;;8264985;28;20475;-49
2020/12/19 20:11:58;;;;;;;4.77;3.13;;;22.10;30.90;;;;;;8260445;28;20117;-46
2020/12/19 20:15:59;;;;;;;3.50;3.20;;;22.10;30.90;;;;;;8257785;28;20077;-48
2020/12/19 20:19:59;;;;;;;3.87;3.10;;;22.10;30.90;;;;;;8260309;28;20093;-48
2020/12/19 20:24:00;;;;;;;3.77;2.80;;;22.10;30.90;;;;;;8264283;28;20117;-47
2020/12/19 20:28:00;;;;;;;4.03;3.50;;;22.10;30.90;;;;;;8261455;28;20045;-47
2020/12/19 20:32:02;;;;;;;4.17;3.23;;;22.10;30.90;;;;;;8292839;28;20042;-46
2020/12/19 20:36:05;;;;;;;4.50;3.63;;;22.00;30.80;;;;;;8292233;28;20456;-47
2020/12/19 20:40:05;;;;;;;3.40;3.10;;;22.00;30.80;;;;;;8290368;28;20034;-47
2020/12/19 20:44:06;;;;;;;4.70;3.58;;;22.00;30.80;;;;;;8296552;28;20429;-48
2020/12/19 20:48:06;;;;;;;4.63;3.20;;;22.00;30.80;;;;;;8272175;28;20461;-48
2020/12/19 20:52:07;;;;;;;3.57;3.10;;;22.00;30.80;;;;;;8258308;28;20035;-47
2020/12/19 20:56:09;;;;;;;4.45;3.30;;;22.00;30.80;;;;;;8272156;28;20030;-47
2020/12/19 21:00:09;;;;;;;3.85;3.30;;;22.00;30.90;;;;;;8296255;28;20411;-48